Kenneth Carl — WDF8246 — position and weather

sailwx.info

Track history (hours):
 
Tides and Currents Weather Stations Pressure Air Temp Water Temp Dewpoint Dewpoint Depression Visibility Wind Speed Wind Dir Waves Ship Positions

Kenneth Carl

Owner: So. Cal. Ship Services, Inc., San Pedro, CA. More information available from US FCC via Universal Licensing System and Coast Guard Vessel Documentation Center.

Last reported at 2017-Nov-17 17:18 UTC. Time now 2017-Nov-18 11:44 UTC.
Position N 33°34' W 118°07'.

Length 31 m; draft 3 m.

Type: Ship. MMSI: 367492920.

Date/timePositionNaut miles runAvg speedWind from/ knotsBaromVisibWave heightAir tempDewpointWater temp
2017-Nov-17 17:18N 33°34' W 118°07'0 0.0
2017-Nov-17 17:00N 33°34' W 118°07'13 0.3
2017-Nov-15 23:15N 33°44' W 118°16'0 0.0
2017-Nov-15 22:53N 33°44' W 118°16'2 3.8
2017-Nov-15 22:16N 33°42' W 118°15'510.2
2017-Nov-15 21:47N 33°38' W 118°11'410.4
2017-Nov-15 21:25N 33°35' W 118°08'0 0.6
2017-Nov-15 20:58N 33°35' W 118°08'1 2.4
2017-Nov-15 20:26N 33°34' W 118°07'0 0.0
2017-Nov-15 19:56N 33°34' W 118°07'0 0.0
2017-Nov-15 19:30N 33°34' W 118°07'0 0.0
2017-Nov-15 19:00N 33°34' W 118°07'0 0.0
2017-Nov-15 18:30N 33°34' W 118°07'1 2.5
2017-Nov-15 18:00N 33°35' W 118°08'1 1.8
2017-Nov-15 17:30N 33°35' W 118°09'11 7.6
2017-Nov-15 16:05N 33°44' W 118°16'0 0.0
2017-Nov-15 15:59N 33°44' W 118°16'0 0.0
2017-Nov-15 15:30N 33°44' W 118°16'0 0.0
2017-Nov-15 15:00N 33°44' W 118°16'0 0.0
2017-Nov-15 14:27N 33°44' W 118°16'0 0.0
2017-Nov-15 13:57N 33°44' W 118°16'0 0.0
2017-Nov-15 13:09N 33°44' W 118°16'0 0.0
2017-Nov-14 00:52N 33°44' W 118°16'0 0.0
2017-Nov-14 00:29N 33°44' W 118°16'0 0.0
2017-Nov-14 00:00N 33°44' W 118°16'3 6.5
2017-Nov-13 23:30N 33°42' W 118°14'510.4
2017-Nov-13 22:59N 33°38' W 118°10'3 6.1
2017-Nov-13 22:30N 33°35' W 118°08'0 0.1
2017-Nov-13 21:58N 33°35' W 118°08'  
2017-Nov-08 07:44N 33°44' W 118°16'0 0.0
2017-Nov-08 07:26N 33°44' W 118°16'0 0.0
2017-Nov-08 06:50N 33°44' W 118°16'0 0.0
2017-Nov-08 00:32N 33°44' W 118°16'0 0.0
2017-Nov-07 21:08N 33°44' W 118°16'0 0.0
2017-Nov-07 20:14N 33°44' W 118°16'  
Track history (hours):
 
Tides and Currents Weather Stations Pressure Air Temp Water Temp Dewpoint Dewpoint Depression Visibility Wind Speed Wind Dir Waves Ship Positions

Kenneth Carl

Owner: So. Cal. Ship Services, Inc., San Pedro, CA. More information available from US FCC via Universal Licensing System and Coast Guard Vessel Documentation Center.

Last reported at 2017-Nov-17 17:18 UTC. Time now 2017-Nov-18 11:44 UTC.
Position N 33°34' W 118°07'.

Length 31 m; draft 3 m.

Type: Ship. MMSI: 367492920.

Date/timePositionNaut miles runAvg speedWind from/ knotsBaromVisibWave heightAir tempDewpointWater temp
2017-Nov-17 17:18N 33°34' W 118°07'0 0.0
2017-Nov-17 17:00N 33°34' W 118°07'13 0.3
2017-Nov-15 23:15N 33°44' W 118°16'0 0.0
2017-Nov-15 22:53N 33°44' W 118°16'2 3.8
2017-Nov-15 22:16N 33°42' W 118°15'510.2
2017-Nov-15 21:47N 33°38' W 118°11'410.4
2017-Nov-15 21:25N 33°35' W 118°08'0 0.6
2017-Nov-15 20:58N 33°35' W 118°08'1 2.4
2017-Nov-15 20:26N 33°34' W 118°07'0 0.0
2017-Nov-15 19:56N 33°34' W 118°07'0 0.0
2017-Nov-15 19:30N 33°34' W 118°07'0 0.0
2017-Nov-15 19:00N 33°34' W 118°07'0 0.0
2017-Nov-15 18:30N 33°34' W 118°07'1 2.5
2017-Nov-15 18:00N 33°35' W 118°08'1 1.8
2017-Nov-15 17:30N 33°35' W 118°09'11 7.6
2017-Nov-15 16:05N 33°44' W 118°16'0 0.0
2017-Nov-15 15:59N 33°44' W 118°16'0 0.0
2017-Nov-15 15:30N 33°44' W 118°16'0 0.0
2017-Nov-15 15:00N 33°44' W 118°16'0 0.0
2017-Nov-15 14:27N 33°44' W 118°16'0 0.0
2017-Nov-15 13:57N 33°44' W 118°16'0 0.0
2017-Nov-15 13:09N 33°44' W 118°16'0 0.0
2017-Nov-14 00:52N 33°44' W 118°16'0 0.0
2017-Nov-14 00:29N 33°44' W 118°16'0 0.0
2017-Nov-14 00:00N 33°44' W 118°16'3 6.5
2017-Nov-13 23:30N 33°42' W 118°14'510.4
2017-Nov-13 22:59N 33°38' W 118°10'3 6.1
2017-Nov-13 22:30N 33°35' W 118°08'0 0.1
2017-Nov-13 21:58N 33°35' W 118°08'  
2017-Nov-08 07:44N 33°44' W 118°16'0 0.0
2017-Nov-08 07:26N 33°44' W 118°16'0 0.0
2017-Nov-08 06:50N 33°44' W 118°16'0 0.0
2017-Nov-08 00:32N 33°44' W 118°16'0 0.0
2017-Nov-07 21:08N 33°44' W 118°16'0 0.0
2017-Nov-07 20:14N 33°44' W 118°16'  

Dump ship's entire track history